Terminal Aerodrome Forecast
Issued by NWS

Home | Current Version | Previous Version | Text Only | Print | Product List | Glossary On
Versions: 1 2 3 4 5 6 7 8 9 10 11 12 13
000
FTUS46 KOTX 191738
TAFSFF
TAF
KSFF 191738Z 1918/2018 25005KT P6SM BKN200
     FM192000 26006G12KT P6SM FEW070 BKN200
     FM200200 VRB03KT P6SM SKC
     FM201700 19004KT P6SM SCT200=

USA.gov is the U.S. government's official web portal to all federal, state and local government web resources and services.